createdAt,value
2024-01-17T00:00:46.013Z,39.9
2024-01-17T00:02:03.119Z,40.5
2024-01-17T00:03:20.226Z,39.5
2024-01-17T00:04:37.333Z,39.5
2024-01-17T00:05:54.440Z,37
2024-01-17T00:07:11.546Z,38
2024-01-17T00:08:28.653Z,35.2
2024-01-17T00:09:45.759Z,36.2
2024-01-17T00:11:02.866Z,35.6
2024-01-17T00:12:18.988Z,35.4
2024-01-17T00:13:36.095Z,31.7
2024-01-17T00:14:53.201Z,35.5
2024-01-17T00:16:10.308Z,35.3
2024-01-17T00:17:27.414Z,32
2024-01-17T00:18:44.521Z,35.8
2024-01-17T00:20:00.643Z,37.3
2024-01-17T00:21:17.749Z,38.9
2024-01-17T00:22:34.856Z,33.8
2024-01-17T00:23:51.962Z,33.6
2024-01-17T00:25:09.069Z,37.8
2024-01-17T00:26:26.175Z,37.3
2024-01-17T00:27:43.282Z,33.4
2024-01-17T00:29:00.388Z,39.1
2024-01-17T00:30:17.494Z,36.5
2024-01-17T00:31:34.601Z,36.6
2024-01-17T00:32:51.707Z,34.1
2024-01-17T00:34:08.814Z,37.1
2024-01-17T00:35:25.920Z,35.1
2024-01-17T00:36:42.043Z,38.2
2024-01-17T00:37:59.150Z,35.6
2024-01-17T00:39:16.256Z,34.9
2024-01-17T00:40:33.362Z,33.8
2024-01-17T00:41:50.469Z,34.5
2024-01-17T00:43:07.575Z,34.2
2024-01-17T00:44:24.682Z,36
2024-01-17T00:45:41.789Z,37.1
2024-01-17T00:46:58.895Z,35.6
2024-01-17T00:48:16.002Z,37.7
2024-01-17T00:49:33.109Z,37.6
2024-01-17T00:50:50.215Z,35.7
2024-01-17T00:52:07.322Z,37.5
2024-01-17T00:53:23.444Z,36.3
2024-01-17T00:54:40.550Z,39.7
2024-01-17T00:55:57.657Z,35.7
2024-01-17T00:57:14.764Z,37.4
2024-01-17T00:58:31.870Z,36.4
2024-01-17T00:59:48.976Z,35.2
2024-01-17T01:01:06.083Z,35.2
2024-01-17T01:02:23.189Z,32.6
2024-01-17T01:03:40.296Z,32.9
2024-01-17T01:04:57.402Z,35.6
2024-01-17T01:06:14.508Z,35.2
2024-01-17T01:07:31.615Z,34.7
2024-01-17T01:08:48.721Z,34.3
2024-01-17T01:10:04.844Z,35.9
2024-01-17T01:11:21.950Z,33.8
2024-01-17T01:12:39.057Z,34.5
2024-01-17T01:13:56.163Z,36
2024-01-17T01:15:13.270Z,35.8
2024-01-17T01:16:30.376Z,34.5
2024-01-17T01:17:47.483Z,35.9
2024-01-17T01:19:04.589Z,35.2
2024-01-17T01:20:21.696Z,38.6
2024-01-17T01:21:38.803Z,38.3
2024-01-17T01:22:55.910Z,35.9
2024-01-17T01:24:13.017Z,37.5
2024-01-17T01:25:30.123Z,37.7
2024-01-17T01:26:46.246Z,38
2024-01-17T01:28:03.352Z,37.9
2024-01-17T01:29:20.459Z,38.3
2024-01-17T01:30:37.566Z,36.2
2024-01-17T01:31:54.672Z,39.9
2024-01-17T01:33:11.779Z,38.6
2024-01-17T01:34:28.885Z,39
2024-01-17T01:35:45.992Z,39.2
2024-01-17T01:37:03.098Z,36.1
2024-01-17T01:38:20.205Z,35.9
2024-01-17T01:39:37.311Z,35.2
2024-01-17T01:40:54.418Z,33.6
2024-01-17T01:42:11.524Z,36
2024-01-17T01:43:27.647Z,35.8
2024-01-17T01:44:44.753Z,33.1
2024-01-17T01:46:01.860Z,33.4
2024-01-17T01:47:18.966Z,36.4
2024-01-17T01:48:36.072Z,36.8
2024-01-17T01:49:53.179Z,37.8
2024-01-17T01:51:10.285Z,34.1
2024-01-17T01:52:27.392Z,32.3
2024-01-17T01:53:44.499Z,33.8
2024-01-17T01:55:01.605Z,37.5
2024-01-17T01:56:18.712Z,33.8
2024-01-17T01:57:35.819Z,32.8
2024-01-17T01:58:52.925Z,32.7
2024-01-17T02:00:09.047Z,31.3
2024-01-17T02:01:26.154Z,29.9
2024-01-17T02:02:43.260Z,30.4
2024-01-17T02:04:00.367Z,34.2
2024-01-17T02:05:17.473Z,30.9
2024-01-17T02:06:34.579Z,32.6
2024-01-17T02:07:51.686Z,30.7
2024-01-17T02:09:08.792Z,30.7
2024-01-17T02:10:25.898Z,32.4
2024-01-17T02:11:43.005Z,30.4
2024-01-17T02:13:00.111Z,31.8
2024-01-17T02:14:17.218Z,30.9
2024-01-17T02:15:34.324Z,32.8
2024-01-17T02:16:50.446Z,29.3
2024-01-17T02:18:07.553Z,29.3
2024-01-17T02:19:24.659Z,30.8
2024-01-17T02:20:41.765Z,30.7
2024-01-17T02:21:58.872Z,31.8
2024-01-17T02:23:15.978Z,29.9
2024-01-17T02:24:33.084Z,31.6
2024-01-17T02:25:50.191Z,32.2
2024-01-17T02:27:07.297Z,31.4
2024-01-17T02:28:24.404Z,30.4
2024-01-17T02:29:41.510Z,29.7
2024-01-17T02:30:58.616Z,30.1
2024-01-17T02:32:15.723Z,31.8
2024-01-17T02:33:31.845Z,30.1
2024-01-17T02:34:48.951Z,31.6
2024-01-17T02:36:06.058Z,31.6
2024-01-17T02:37:23.165Z,33
2024-01-17T02:38:40.271Z,33.7
2024-01-17T02:39:57.377Z,30.7
2024-01-17T02:41:14.484Z,30.9
2024-01-17T02:42:31.590Z,29.7
2024-01-17T02:43:48.697Z,29.9
2024-01-17T02:45:05.803Z,30.6
2024-01-17T02:46:22.909Z,29
2024-01-17T02:47:40.016Z,30
2024-01-17T02:48:57.123Z,28.3
2024-01-17T02:50:13.245Z,29.7
2024-01-17T02:51:30.352Z,31.5
2024-01-17T02:52:47.458Z,30.5
2024-01-17T02:54:04.565Z,32.9
2024-01-17T02:55:21.671Z,30.8
2024-01-17T02:56:38.777Z,30.6
2024-01-17T02:57:55.884Z,29.1
2024-01-17T02:59:12.991Z,32.2
2024-01-17T03:00:30.098Z,31.7
2024-01-17T03:01:47.205Z,29.1
2024-01-17T03:03:04.311Z,31.7
2024-01-17T03:04:21.418Z,32
2024-01-17T03:05:38.525Z,34.5
2024-01-17T03:06:54.647Z,30.2
2024-01-17T03:08:11.754Z,33.7
2024-01-17T03:09:28.860Z,32.4
2024-01-17T03:10:45.967Z,34.5
2024-01-17T03:12:03.073Z,33.3
2024-01-17T03:13:20.180Z,32.6
2024-01-17T03:14:37.286Z,32.6
2024-01-17T03:15:54.392Z,30.2
2024-01-17T03:17:11.499Z,30.2
2024-01-17T03:18:28.605Z,32.1
2024-01-17T03:19:45.712Z,31.2
2024-01-17T03:21:02.819Z,30.4
2024-01-17T03:22:19.925Z,30
2024-01-17T03:23:36.048Z,31.4
2024-01-17T03:24:53.154Z,29.6
2024-01-17T03:26:10.261Z,31.9
2024-01-17T03:27:27.367Z,33.6
2024-01-17T03:28:44.473Z,29
2024-01-17T03:30:01.580Z,29.4
2024-01-17T03:31:18.686Z,29.2
2024-01-17T03:32:35.793Z,30.5
2024-01-17T03:33:52.899Z,29.5
2024-01-17T03:35:10.006Z,30.8
2024-01-17T03:36:27.112Z,30.9
2024-01-17T03:37:44.218Z,30.3
2024-01-17T03:39:01.325Z,29.3
2024-01-17T03:40:17.447Z,33.9
2024-01-17T03:41:34.554Z,29.4
2024-01-17T03:42:51.660Z,30.6
2024-01-17T03:44:08.767Z,28.4
2024-01-17T03:45:25.873Z,27.4
2024-01-17T03:46:42.980Z,31.6
2024-01-17T03:48:00.086Z,31.9
2024-01-17T03:49:17.193Z,28.9
2024-01-17T03:50:34.299Z,28
2024-01-17T03:51:51.406Z,28.5
2024-01-17T03:53:08.512Z,28.8
2024-01-17T03:54:25.619Z,28.5
2024-01-17T03:55:42.725Z,30.4
2024-01-17T03:56:58.848Z,29.5
2024-01-17T03:58:15.954Z,30.8
2024-01-17T03:59:33.061Z,31.2
2024-01-17T04:00:50.167Z,30.2
2024-01-17T04:02:07.273Z,31
2024-01-17T04:03:24.380Z,31.4
2024-01-17T04:04:41.486Z,29.9
2024-01-17T04:05:58.593Z,32.2
2024-01-17T04:07:15.699Z,28
2024-01-17T04:08:32.806Z,29.7
2024-01-17T04:09:49.913Z,31.2
2024-01-17T04:11:07.020Z,27.4
2024-01-17T04:12:24.126Z,29.3
2024-01-17T04:13:40.248Z,29.4
2024-01-17T04:14:57.355Z,26.8
2024-01-17T04:16:14.461Z,29.1
2024-01-17T04:17:31.566Z,30.1
2024-01-17T04:18:48.672Z,31
2024-01-17T04:20:05.779Z,27.8
2024-01-17T04:21:22.885Z,28.5
2024-01-17T04:22:39.992Z,26.7
2024-01-17T04:23:57.098Z,27.5
2024-01-17T04:25:14.205Z,30.2
2024-01-17T04:26:31.311Z,26.3
2024-01-17T04:27:48.418Z,30
2024-01-17T04:29:05.524Z,32.6
2024-01-17T04:30:21.646Z,27.6
2024-01-17T04:31:38.753Z,31.3
2024-01-17T04:32:55.859Z,30.7
2024-01-17T04:34:12.965Z,28.4
2024-01-17T04:35:30.072Z,29.1
2024-01-17T04:36:47.178Z,30.7
2024-01-17T04:38:03.301Z,29.9
2024-01-17T04:39:20.407Z,27.1
2024-01-17T04:40:37.514Z,28.2
2024-01-17T04:41:54.620Z,30.2
2024-01-17T04:43:11.726Z,28.7
2024-01-17T04:44:28.833Z,30.3
2024-01-17T04:45:45.939Z,28.7
2024-01-17T04:47:03.046Z,30.3
2024-01-17T04:48:20.152Z,30.3
2024-01-17T04:49:37.259Z,28.2
2024-01-17T04:50:54.365Z,29.8
2024-01-17T04:52:11.472Z,30.1
2024-01-17T04:53:28.578Z,28.5
2024-01-17T04:54:44.701Z,26.4
2024-01-17T04:56:01.807Z,29.9
2024-01-17T04:57:18.914Z,29
2024-01-17T04:58:36.020Z,30.3
2024-01-17T04:59:53.126Z,27.1
2024-01-17T05:01:10.233Z,27.9
2024-01-17T05:02:27.340Z,27.9
2024-01-17T05:03:44.446Z,26.9
2024-01-17T05:05:01.553Z,27.8
2024-01-17T05:06:18.659Z,29.4
2024-01-17T05:07:35.766Z,25.1
2024-01-17T05:08:52.872Z,30.6
2024-01-17T05:10:09.978Z,28.7
2024-01-17T05:11:26.101Z,28.2
2024-01-17T05:12:43.207Z,29
2024-01-17T05:14:00.314Z,31.3
2024-01-17T05:15:17.420Z,29.4
2024-01-17T05:16:34.527Z,30.7
2024-01-17T05:17:51.633Z,26.7
2024-01-17T05:19:08.739Z,29.4
2024-01-17T05:20:25.846Z,30.2
2024-01-17T05:21:42.952Z,27.7
2024-01-17T05:23:00.058Z,30.4
2024-01-17T05:24:17.165Z,28.4
2024-01-17T05:25:34.271Z,27.4
2024-01-17T05:26:51.378Z,28.6
2024-01-17T05:28:07.500Z,26.7
2024-01-17T05:29:24.606Z,29
2024-01-17T05:30:41.713Z,31.3
2024-01-17T05:31:58.819Z,28
2024-01-17T05:33:15.926Z,31.1
2024-01-17T05:34:33.032Z,29.7
2024-01-17T05:35:50.139Z,31.3
2024-01-17T05:37:07.245Z,27.3
2024-01-17T05:38:24.352Z,27.1
2024-01-17T05:39:41.458Z,29.4
2024-01-17T05:40:58.565Z,28.5
2024-01-17T05:42:15.671Z,29.3
2024-01-17T05:43:32.777Z,30.6
2024-01-17T05:44:48.900Z,28
2024-01-17T05:46:06.006Z,27.8
2024-01-17T05:47:23.113Z,25.5
2024-01-17T05:48:40.219Z,28.8
2024-01-17T05:49:57.325Z,29.7
2024-01-17T05:51:14.432Z,27.7
2024-01-17T05:52:31.538Z,30
2024-01-17T05:53:48.644Z,29.3
2024-01-17T05:55:05.751Z,29.7
2024-01-17T05:56:22.857Z,30.4
2024-01-17T05:57:39.964Z,29
2024-01-17T05:58:57.071Z,27.6
2024-01-17T06:00:14.177Z,28
2024-01-17T06:01:30.299Z,26.7
2024-01-17T06:02:47.406Z,27.8
2024-01-17T06:04:04.512Z,26.3
2024-01-17T06:05:21.618Z,28.6
2024-01-17T06:06:38.724Z,30.6
2024-01-17T06:07:55.830Z,25.8
2024-01-17T06:09:12.937Z,27.7
2024-01-17T06:10:30.043Z,25.5
2024-01-17T06:11:47.150Z,26.1
2024-01-17T06:13:04.256Z,24.9
2024-01-17T06:14:21.362Z,27
2024-01-17T06:15:38.468Z,25
2024-01-17T06:16:55.575Z,28.8
2024-01-17T06:18:11.697Z,27.4
2024-01-17T06:19:28.804Z,26.4
2024-01-17T06:20:45.910Z,29.9
2024-01-17T06:22:03.015Z,29.1
2024-01-17T06:23:20.121Z,25.6
2024-01-17T06:24:37.227Z,30.3
2024-01-17T06:25:54.334Z,26
2024-01-17T06:27:11.440Z,28.3
2024-01-17T06:28:28.546Z,30.5
2024-01-17T06:29:45.653Z,28.2
2024-01-17T06:31:02.760Z,27
2024-01-17T06:32:19.867Z,27.5
2024-01-17T06:33:36.973Z,27.8
2024-01-17T06:34:53.096Z,30.4
2024-01-17T06:36:10.202Z,29.7
2024-01-17T06:37:27.308Z,27.2
2024-01-17T06:38:44.415Z,26.5
2024-01-17T06:40:01.521Z,28.1
2024-01-17T06:41:18.627Z,27.8
2024-01-17T06:42:35.734Z,28.4
2024-01-17T06:43:52.838Z,29.5
2024-01-17T06:45:09.945Z,26.7
2024-01-17T06:46:27.051Z,26.1
2024-01-17T06:47:44.158Z,28.8
2024-01-17T06:49:01.264Z,26.6
2024-01-17T06:50:18.370Z,29.1
2024-01-17T06:51:34.493Z,27.6
2024-01-17T06:52:51.599Z,28.1
2024-01-17T06:54:08.705Z,29.1
2024-01-17T06:55:25.812Z,27.3
2024-01-17T06:56:42.918Z,30.2
2024-01-17T06:58:00.024Z,29.2
2024-01-17T06:59:17.130Z,27.9
2024-01-17T07:00:34.235Z,30.2
2024-01-17T07:01:51.341Z,29.2
2024-01-17T07:03:08.448Z,26.9
2024-01-17T07:04:25.554Z,31.8
2024-01-17T07:05:42.660Z,26.7
2024-01-17T07:06:59.766Z,29
2024-01-17T07:08:15.889Z,26.5
2024-01-17T07:09:32.995Z,27.6
2024-01-17T07:10:50.100Z,24.3
2024-01-17T07:12:07.206Z,27.6
2024-01-17T07:13:24.311Z,28.4
2024-01-17T07:14:41.417Z,26.1
2024-01-17T07:15:58.523Z,29
2024-01-17T07:17:15.628Z,30.1
2024-01-17T07:18:32.734Z,26.6
2024-01-17T07:19:49.839Z,27.1
2024-01-17T07:21:06.945Z,25.1
2024-01-17T07:22:24.050Z,26.7
2024-01-17T07:23:41.156Z,27.1
2024-01-17T07:24:57.278Z,26.5
2024-01-17T07:26:14.383Z,27.5
2024-01-17T07:27:31.489Z,24.1
2024-01-17T07:28:48.595Z,25.5
2024-01-17T07:30:05.700Z,26
2024-01-17T07:31:22.805Z,28
2024-01-17T07:32:39.911Z,24.1
2024-01-17T07:33:57.016Z,24.7
2024-01-17T07:35:14.122Z,24.5
2024-01-17T07:36:31.227Z,27.7
2024-01-17T07:37:48.333Z,25.1
2024-01-17T07:39:05.439Z,24.6
2024-01-17T07:40:22.544Z,23.6
2024-01-17T07:41:38.666Z,24.2
2024-01-17T07:42:55.772Z,27.7
2024-01-17T07:44:12.878Z,23.9
2024-01-17T07:45:29.983Z,25.3
2024-01-17T07:46:47.089Z,25.1
2024-01-17T07:48:04.194Z,28.4
2024-01-17T07:49:21.300Z,25.3
2024-01-17T07:50:38.405Z,26.7
2024-01-17T07:51:55.511Z,27.2
2024-01-17T07:53:12.616Z,25.3
2024-01-17T07:54:29.722Z,27.2
2024-01-17T07:55:46.827Z,25.3
2024-01-17T07:57:03.933Z,24.6
2024-01-17T07:58:20.055Z,25.3
2024-01-17T07:59:37.160Z,26.2
2024-01-17T08:00:54.266Z,24.6
2024-01-17T08:02:11.372Z,24.4
2024-01-17T08:03:28.477Z,22.8
2024-01-17T08:04:45.583Z,22.9
2024-01-17T08:06:02.688Z,20.8
2024-01-17T08:07:19.794Z,24.3
2024-01-17T08:08:36.900Z,24.3
2024-01-17T08:09:54.005Z,26
2024-01-17T08:11:11.111Z,23.2
2024-01-17T08:12:28.217Z,25.9
2024-01-17T08:13:45.324Z,28.2
2024-01-17T08:15:01.445Z,25.4
2024-01-17T08:16:18.551Z,24.8
2024-01-17T08:17:35.656Z,22.8
2024-01-17T08:18:52.762Z,23.6
2024-01-17T08:20:09.868Z,21.8
2024-01-17T08:21:26.973Z,22.7
2024-01-17T08:22:44.079Z,21.3
2024-01-17T08:24:01.185Z,20.6
2024-01-17T08:25:18.290Z,22
2024-01-17T08:26:35.396Z,22.9
2024-01-17T08:27:52.501Z,22.8
2024-01-17T08:29:09.607Z,22.9
2024-01-17T08:30:26.713Z,19
2024-01-17T08:31:42.834Z,21.9
2024-01-17T08:32:59.940Z,22
2024-01-17T08:34:17.045Z,23.8
2024-01-17T08:35:34.151Z,23.1
2024-01-17T08:36:51.256Z,21.1
2024-01-17T08:38:08.362Z,20.3
2024-01-17T08:39:25.467Z,19.3
2024-01-17T08:40:42.573Z,22.7
2024-01-17T08:41:59.678Z,19.6
2024-01-17T08:43:16.784Z,20.9
2024-01-17T08:44:33.890Z,18.7
2024-01-17T08:45:50.995Z,18.1
2024-01-17T08:47:08.100Z,18.7
2024-01-17T08:48:24.221Z,21.1
2024-01-17T08:49:41.327Z,19.1
2024-01-17T08:50:58.432Z,18.8
2024-01-17T08:52:15.537Z,15.9
2024-01-17T08:53:32.642Z,16.4
2024-01-17T08:54:49.748Z,21.6
2024-01-17T08:56:05.869Z,17
2024-01-17T08:57:22.975Z,18.1
2024-01-17T08:58:40.080Z,17.1
2024-01-17T08:59:57.185Z,19.1
2024-01-17T09:01:14.290Z,18
2024-01-17T09:02:31.395Z,19.8
2024-01-17T09:03:48.500Z,17.3
2024-01-17T09:05:05.606Z,17.2
2024-01-17T09:06:22.711Z,17.3
2024-01-17T09:07:39.816Z,18.8
2024-01-17T09:08:56.922Z,21.3
2024-01-17T09:10:14.027Z,19.5
2024-01-17T09:11:31.132Z,20.1
2024-01-17T09:12:47.254Z,19.2
2024-01-17T09:14:04.359Z,16.9
2024-01-17T09:15:21.464Z,18.2
2024-01-17T09:16:38.569Z,17.9
2024-01-17T09:17:55.675Z,18.3
2024-01-17T09:19:12.780Z,20.7
2024-01-17T09:20:29.886Z,16.7
2024-01-17T09:21:46.991Z,19.1
2024-01-17T09:23:04.096Z,18.2
2024-01-17T09:24:21.201Z,37
2024-01-17T09:25:38.306Z,26.8
2024-01-17T09:26:55.412Z,34.8
2024-01-17T09:28:12.515Z,22.1
2024-01-17T09:29:28.636Z,19.9
2024-01-17T09:30:45.742Z,17.7
2024-01-17T09:32:02.847Z,17.9
2024-01-17T09:33:19.952Z,19.1
2024-01-17T09:34:37.057Z,18.2
2024-01-17T09:35:54.162Z,17.7
2024-01-17T09:37:11.268Z,16.9
2024-01-17T09:38:28.373Z,16.5
2024-01-17T09:39:45.478Z,16.5
2024-01-17T09:41:02.583Z,19
2024-01-17T09:42:19.689Z,17.4
2024-01-17T09:43:36.794Z,16.7
2024-01-17T09:44:53.899Z,17.3
2024-01-17T09:46:10.020Z,17.6
2024-01-17T09:47:27.125Z,17.7
2024-01-17T09:48:44.230Z,15.6
2024-01-17T09:50:01.336Z,14.6
2024-01-17T09:51:18.441Z,17.5
2024-01-17T09:52:35.546Z,17
2024-01-17T09:53:52.651Z,17.5
2024-01-17T09:55:09.756Z,16.8
2024-01-17T09:56:26.861Z,16.9
2024-01-17T09:57:43.966Z,19.2
2024-01-17T09:59:01.071Z,16.8
2024-01-17T10:00:18.176Z,17.7
2024-01-17T10:01:35.281Z,18.9
2024-01-17T10:02:51.402Z,17.1
2024-01-17T10:04:08.508Z,16
2024-01-17T10:05:25.612Z,17.2
2024-01-17T10:06:42.717Z,16.2
2024-01-17T10:07:59.822Z,16.6
2024-01-17T10:09:16.928Z,16.5
2024-01-17T10:10:34.033Z,17.6
2024-01-17T10:11:51.138Z,15.2
2024-01-17T10:13:08.243Z,15.6
2024-01-17T10:14:25.348Z,15.7
2024-01-17T10:15:42.453Z,15.7
2024-01-17T10:16:59.558Z,16.9
2024-01-17T10:18:16.663Z,17.2
2024-01-17T10:19:32.784Z,15.5
2024-01-17T10:20:49.890Z,16
2024-01-17T10:22:06.995Z,15.8
2024-01-17T10:23:24.100Z,17.8
2024-01-17T10:24:41.205Z,15.6
2024-01-17T10:25:58.311Z,15.8
2024-01-17T10:27:15.416Z,15.8
2024-01-17T10:28:32.521Z,15.7
2024-01-17T10:29:49.626Z,16
2024-01-17T10:31:06.731Z,16.1
2024-01-17T10:32:23.836Z,17.4
2024-01-17T10:33:40.941Z,17.1
2024-01-17T10:34:58.045Z,15.5
2024-01-17T10:36:14.166Z,16.4
2024-01-17T10:37:31.272Z,18.4
2024-01-17T10:38:48.377Z,15.9
2024-01-17T10:40:05.482Z,16.2
2024-01-17T10:41:22.586Z,17.5
2024-01-17T10:42:39.691Z,16.1
2024-01-17T10:43:56.796Z,15.7
2024-01-17T10:45:13.901Z,18.5
2024-01-17T10:46:31.006Z,18.7
2024-01-17T10:47:48.111Z,16.8
2024-01-17T10:49:05.216Z,16.1
2024-01-17T10:50:22.321Z,15.8
2024-01-17T10:51:39.426Z,17.2
2024-01-17T10:52:55.547Z,15.9
2024-01-17T10:54:12.652Z,17.9
2024-01-17T10:55:29.757Z,17
2024-01-17T10:56:46.861Z,16.3
2024-01-17T10:58:03.966Z,17.2
2024-01-17T10:59:21.071Z,16.6
2024-01-17T11:00:38.176Z,16.5
2024-01-17T11:01:55.281Z,18.3
2024-01-17T11:03:12.386Z,15.8
2024-01-17T11:04:29.491Z,18.1
2024-01-17T11:05:46.596Z,17.6
2024-01-17T11:07:03.701Z,15.9
2024-01-17T11:08:20.805Z,17.4
2024-01-17T11:09:36.926Z,17
2024-01-17T11:10:54.032Z,17.3
2024-01-17T11:12:11.136Z,17.2
2024-01-17T11:13:28.241Z,16.9
2024-01-17T11:14:45.346Z,17.9
2024-01-17T11:16:02.451Z,17.6
2024-01-17T11:17:19.556Z,18.6
2024-01-17T11:18:36.661Z,18.4
2024-01-17T11:19:53.766Z,18.2
2024-01-17T11:21:10.871Z,18.4
2024-01-17T11:22:27.976Z,18.2
2024-01-17T11:23:45.080Z,19.1
2024-01-17T11:25:02.185Z,17.7
2024-01-17T11:26:18.306Z,19.9
2024-01-17T11:27:35.411Z,19.7
2024-01-17T11:28:52.516Z,19.6
2024-01-17T11:30:09.621Z,19.5
2024-01-17T11:31:26.726Z,19.6
2024-01-17T11:32:43.831Z,19.7
2024-01-17T11:34:00.936Z,18.5
2024-01-17T11:35:18.041Z,18.8
2024-01-17T11:36:35.146Z,21
2024-01-17T11:37:52.251Z,18.6
2024-01-17T11:39:09.356Z,19.7
2024-01-17T11:40:26.461Z,20.9
2024-01-17T11:41:43.566Z,19.6
2024-01-17T11:42:59.687Z,17
2024-01-17T11:44:16.793Z,18.7
2024-01-17T11:45:33.897Z,18.8
2024-01-17T11:46:51.002Z,18.9
2024-01-17T11:48:08.105Z,18.2
2024-01-17T11:49:25.210Z,18.6
2024-01-17T11:50:42.315Z,19.3
2024-01-17T11:51:59.420Z,19.3
2024-01-17T11:53:16.525Z,18.6
2024-01-17T11:54:33.630Z,16.1
2024-01-17T11:55:50.735Z,17.8
2024-01-17T11:57:07.839Z,18.2
2024-01-17T11:58:24.944Z,19.7
2024-01-17T11:59:41.065Z,20.8
2024-01-17T12:00:58.170Z,20.6
2024-01-17T12:02:15.275Z,20.9
2024-01-17T12:03:32.381Z,20.7
2024-01-17T12:04:49.486Z,23.3
2024-01-17T12:06:06.591Z,21.9
2024-01-17T12:07:23.696Z,23.9
2024-01-17T12:08:40.801Z,22
2024-01-17T12:09:57.906Z,25.2
2024-01-17T12:11:15.011Z,23.9
2024-01-17T12:12:32.117Z,26.7
2024-01-17T12:13:49.222Z,25.6
2024-01-17T12:15:06.326Z,25.4
2024-01-17T12:16:22.447Z,24.1
2024-01-17T12:17:39.553Z,22.7
2024-01-17T12:18:56.658Z,27.3
2024-01-17T12:20:13.762Z,25.8
2024-01-17T12:21:30.867Z,24.4
2024-01-17T12:22:47.972Z,26.3
2024-01-17T12:24:05.077Z,27.4
2024-01-17T12:25:22.182Z,24.9
2024-01-17T12:26:39.287Z,23.5
2024-01-17T12:27:56.392Z,23.7
2024-01-17T12:29:13.497Z,26.2
2024-01-17T12:30:30.602Z,24.6
2024-01-17T12:31:47.707Z,27
2024-01-17T12:33:03.828Z,28.4
2024-01-17T12:34:20.933Z,26.6
2024-01-17T12:35:38.038Z,26.3
2024-01-17T12:36:55.143Z,28.7
2024-01-17T12:38:12.247Z,28.3
2024-01-17T12:39:29.353Z,31.2
2024-01-17T12:40:46.458Z,30.1
2024-01-17T12:42:03.563Z,29.8
2024-01-17T12:43:20.667Z,31.9
2024-01-17T12:44:37.772Z,31.8
2024-01-17T12:45:54.877Z,32.7
2024-01-17T12:47:11.982Z,33.5
2024-01-17T12:48:29.087Z,35.8
2024-01-17T12:49:45.208Z,37
2024-01-17T12:51:02.313Z,35.5
2024-01-17T12:52:19.418Z,39.2
2024-01-17T12:53:36.523Z,38.4
2024-01-17T12:54:53.628Z,40.7
2024-01-17T12:56:10.733Z,41.4
2024-01-17T12:57:27.838Z,39.3
2024-01-17T12:58:44.942Z,37.7
2024-01-17T13:00:02.047Z,42.6
2024-01-17T13:01:19.153Z,38.8
2024-01-17T13:02:36.258Z,36.6
2024-01-17T13:03:53.363Z,40.1
2024-01-17T13:05:10.468Z,39.7
2024-01-17T13:06:26.589Z,37.7
2024-01-17T13:07:43.694Z,37.7
2024-01-17T13:09:00.798Z,35.6
2024-01-17T13:10:17.903Z,35.7
2024-01-17T13:11:35.008Z,36.2
2024-01-17T13:12:52.114Z,39.3
2024-01-17T13:14:08.235Z,35.7
2024-01-17T13:15:25.340Z,38.9
2024-01-17T13:16:42.445Z,37.1
2024-01-17T13:17:59.550Z,38
2024-01-17T13:19:16.655Z,37.8
2024-01-17T13:20:33.760Z,34.5
2024-01-17T13:21:50.864Z,37.5
2024-01-17T13:23:07.969Z,35.3
2024-01-17T13:24:25.075Z,35.4
2024-01-17T13:25:42.180Z,44.1
2024-01-17T13:26:59.285Z,44.7
2024-01-17T13:28:16.390Z,43.7
2024-01-17T13:29:33.494Z,40.1
2024-01-17T13:30:49.616Z,47.1
2024-01-17T13:32:06.720Z,42.3
2024-01-17T13:33:23.825Z,44.4
2024-01-17T13:34:40.930Z,43.6
2024-01-17T13:35:58.036Z,45
2024-01-17T13:37:15.141Z,42
2024-01-17T13:38:32.246Z,42.5
2024-01-17T13:39:49.351Z,42.6
2024-01-17T13:41:06.456Z,41.4
2024-01-17T13:42:23.561Z,40.4
2024-01-17T13:43:40.666Z,40.7
2024-01-17T13:44:57.771Z,42.6
2024-01-17T13:46:14.876Z,45.4
2024-01-17T13:47:30.997Z,43.3
2024-01-17T13:48:48.102Z,46.4
2024-01-17T13:50:05.207Z,51.4
2024-01-17T13:51:22.312Z,45.1
2024-01-17T13:52:39.417Z,48.1
2024-01-17T13:53:56.522Z,44.7
2024-01-17T13:55:13.627Z,45.5
2024-01-17T13:56:30.732Z,44.8
2024-01-17T13:57:47.837Z,45.9
2024-01-17T13:59:04.942Z,50.7
2024-01-17T14:00:22.047Z,45.9
2024-01-17T14:01:39.152Z,45.5
2024-01-17T14:02:56.257Z,45.6
2024-01-17T14:04:12.378Z,47
2024-01-17T14:05:29.484Z,46.5
2024-01-17T14:06:46.589Z,46.5
2024-01-17T14:08:03.694Z,49.4
2024-01-17T14:09:20.800Z,46.5
2024-01-17T14:10:37.905Z,45.1
2024-01-17T14:11:55.010Z,44.4
2024-01-17T14:13:12.115Z,42.6
2024-01-17T14:14:29.220Z,47.7
2024-01-17T14:15:46.325Z,45.9
2024-01-17T14:17:03.430Z,46
2024-01-17T14:18:20.535Z,46.6
2024-01-17T14:19:37.640Z,51
2024-01-17T14:20:53.761Z,53.7
2024-01-17T14:22:10.866Z,52.7
2024-01-17T14:23:27.971Z,45.6
2024-01-17T14:24:45.076Z,48.6
2024-01-17T14:26:02.183Z,49.7
2024-01-17T14:27:19.288Z,49.6
2024-01-17T14:28:36.393Z,48.1
2024-01-17T14:29:53.498Z,47.6
2024-01-17T14:31:10.603Z,48.4
2024-01-17T14:32:27.708Z,49.4
2024-01-17T14:33:44.813Z,48.9
2024-01-17T14:35:01.918Z,49.6
2024-01-17T14:36:19.023Z,47.1
2024-01-17T14:37:35.144Z,49.2
2024-01-17T14:38:52.249Z,47.3
2024-01-17T14:40:09.354Z,55.8
2024-01-17T14:41:26.459Z,72.6
2024-01-17T14:42:43.565Z,52.2
2024-01-17T14:44:00.670Z,47.8
2024-01-17T14:45:17.775Z,47.9
2024-01-17T14:46:34.880Z,46
2024-01-17T14:47:51.985Z,51.1
2024-01-17T14:49:09.090Z,49
2024-01-17T14:50:26.195Z,51.8
2024-01-17T14:51:43.300Z,51.6
2024-01-17T14:53:00.406Z,50
2024-01-17T14:54:16.527Z,48.1
2024-01-17T14:55:33.632Z,46.9
2024-01-17T14:56:50.738Z,49.3
2024-01-17T14:58:07.843Z,49.3
2024-01-17T14:59:24.948Z,47.8
2024-01-17T15:00:42.053Z,48.7
2024-01-17T15:01:59.158Z,48.3
2024-01-17T15:03:16.263Z,52.6
2024-01-17T15:04:33.369Z,53.4
2024-01-17T15:05:50.474Z,51
2024-01-17T15:07:07.579Z,45.7
2024-01-17T15:08:24.684Z,46.5
2024-01-17T15:09:41.789Z,44.8
2024-01-17T15:10:57.910Z,43.6
2024-01-17T15:12:15.015Z,46.6
2024-01-17T15:13:32.120Z,56.8
2024-01-17T15:14:49.225Z,49.6
2024-01-17T15:16:06.332Z,51.4
2024-01-17T15:17:23.437Z,45.4
2024-01-17T15:18:40.542Z,56
2024-01-17T15:19:57.647Z,54.6
2024-01-17T15:21:14.752Z,53.9
2024-01-17T15:22:31.857Z,48
2024-01-17T15:23:48.962Z,49.4
2024-01-17T15:25:06.067Z,51.7
2024-01-17T15:26:23.173Z,55.7
2024-01-17T15:27:39.294Z,55.7
2024-01-17T15:28:56.400Z,56.7
2024-01-17T15:30:13.505Z,54.8
2024-01-17T15:31:30.610Z,57.5
2024-01-17T15:32:47.715Z,55.1
2024-01-17T15:34:04.820Z,49.4
2024-01-17T15:35:21.925Z,48.3
2024-01-17T15:36:39.030Z,48.8
2024-01-17T15:37:56.136Z,46.9
2024-01-17T15:39:13.241Z,44.6
2024-01-17T15:40:30.346Z,45.8
2024-01-17T15:41:47.451Z,47.4
2024-01-17T15:43:04.556Z,42.8
2024-01-17T15:44:20.677Z,43.8
2024-01-17T15:45:37.783Z,47.7
2024-01-17T15:46:54.888Z,46.9
2024-01-17T15:48:11.993Z,47
2024-01-17T15:49:29.098Z,45.7
2024-01-17T15:50:46.203Z,47.4
2024-01-17T15:52:03.309Z,48.8
2024-01-17T15:53:20.414Z,52.8
2024-01-17T15:54:37.519Z,51.8
2024-01-17T15:55:54.624Z,48.1
2024-01-17T15:57:11.729Z,48.9
2024-01-17T15:58:28.835Z,48.6
2024-01-17T15:59:45.940Z,45.6
2024-01-17T16:01:02.062Z,56.8
2024-01-17T16:02:19.167Z,55.5
2024-01-17T16:03:36.272Z,59.9
2024-01-17T16:04:53.378Z,56.1
2024-01-17T16:06:10.483Z,56.3
2024-01-17T16:07:27.588Z,56.6
2024-01-17T16:08:44.694Z,58
2024-01-17T16:10:01.799Z,56.5
2024-01-17T16:11:18.905Z,59.5
2024-01-17T16:12:36.011Z,65.2
2024-01-17T16:13:53.116Z,58.6
2024-01-17T16:15:10.221Z,57.9
2024-01-17T16:16:27.326Z,51.7
2024-01-17T16:17:43.447Z,53.7
2024-01-17T16:19:00.552Z,54.6
2024-01-17T16:20:17.657Z,54.5
2024-01-17T16:21:34.763Z,54.3
2024-01-17T16:22:51.868Z,50.9
2024-01-17T16:24:08.973Z,62.2
2024-01-17T16:25:26.078Z,63
2024-01-17T16:26:43.183Z,59.7
2024-01-17T16:28:00.288Z,58.8
2024-01-17T16:29:17.394Z,62.3
2024-01-17T16:30:34.499Z,61.6
2024-01-17T16:31:51.604Z,54.5
2024-01-17T16:33:08.709Z,56.1
2024-01-17T16:34:24.830Z,55
2024-01-17T16:35:41.935Z,61.2
2024-01-17T16:36:59.041Z,57.3
2024-01-17T16:38:16.146Z,55.3
2024-01-17T16:39:33.251Z,60.5
2024-01-17T16:40:50.356Z,53.2
2024-01-17T16:42:07.461Z,57.5
2024-01-17T16:43:24.566Z,59.8
2024-01-17T16:44:41.671Z,66
2024-01-17T16:45:58.776Z,64.1
2024-01-17T16:47:15.882Z,60.8
2024-01-17T16:48:32.987Z,66.7
2024-01-17T16:49:50.092Z,67.1
2024-01-17T16:51:06.213Z,64.9
2024-01-17T16:52:23.318Z,60.6
2024-01-17T16:53:40.423Z,53.5
2024-01-17T16:54:57.528Z,50.8
2024-01-17T16:56:14.633Z,51.2
2024-01-17T16:57:31.739Z,46
2024-01-17T16:58:48.844Z,46.4
2024-01-17T17:00:05.949Z,44.2
2024-01-17T17:01:23.054Z,48.8
2024-01-17T17:02:40.160Z,48.5
2024-01-17T17:03:57.265Z,48.4
2024-01-17T17:05:14.370Z,41.3
2024-01-17T17:06:31.476Z,42.9
2024-01-17T17:07:47.597Z,39.9
2024-01-17T17:09:04.702Z,40
2024-01-17T17:10:21.807Z,39.4
2024-01-17T17:11:38.912Z,38.4